San Gennaro — IIOT2 — position and weather

sailwx.info

Track history (hours):
 
Tides and Currents Weather Stations Pressure Air Temp Water Temp Dewpoint Dewpoint Depression Visibility Wind Speed Wind Dir Waves Ship Positions

San Gennaro

Last reported at 2015-Mar-02 15:33 UTC. Time now 2015-Mar-02 20:36 UTC.
Position N 40°50' E 014°17'.

Length 27 m; draft 5.2 m.

Type: Tug. MMSI: 247295700.

Date/timePositionNaut miles runAvg speedWind from/ knotsBaromVisibWave heightAir tempDewpointWater temp
2015-Mar-02 15:33N 40°50' E 014°17'1 0.9
2015-Mar-02 14:31N 40°49' E 014°18'2 0.8
2015-Mar-02 12:10N 40°51' E 014°16'0 0.0
2015-Mar-02 11:30N 40°51' E 014°16'0 0.0
2015-Mar-01 17:11N 40°51' E 014°16'0 0.0
2015-Mar-01 13:28N 40°51' E 014°16'4 4.4
2015-Mar-01 12:31N 40°48' E 014°20'3 3.2
2015-Mar-01 11:30N 40°45' E 014°23'6 2.1
2015-Mar-01 08:31N 40°50' E 014°17'0 0.0
2015-Feb-28 20:30N 40°50' E 014°18'0 0.4
2015-Feb-28 19:31N 40°50' E 014°18'1 0.3
2015-Feb-28 15:04N 40°51' E 014°16'5 8.9
2015-Feb-28 14:33N 40°47' E 014°20'5 5.4
2015-Feb-28 13:33N 40°45' E 014°27'6 6.3
2015-Feb-28 12:33N 40°48' E 014°19'3 2.9
2015-Feb-28 11:30N 40°50' E 014°17'0 0.2
2015-Feb-28 10:08N 40°50' E 014°16'0 0.2
2015-Feb-28 09:31N 40°50' E 014°16'0 0.0
2015-Feb-27 18:13N 40°50' E 014°16'0 0.1
2015-Feb-27 13:14N 40°50' E 014°16'2 2.5
2015-Feb-27 12:33N 40°50' E 014°18'2 1.5
2015-Feb-27 11:13N 40°51' E 014°16'0 0.6
2015-Feb-27 10:33N 40°50' E 014°16'0 0.1
2015-Feb-27 07:33N 40°51' E 014°16'2 1.4
2015-Feb-27 06:26N 40°50' E 014°18'2 0.8
2015-Feb-27 04:28N 40°51' E 014°16'0 0.0
2015-Feb-27 02:17N 40°51' E 014°16'0 0.0
2015-Feb-27 01:27N 40°51' E 014°16'0 0.0
2015-Feb-26 20:28N 40°51' E 014°16'0 0.0
2015-Feb-26 19:27N 40°51' E 014°16'0 0.0
2015-Feb-26 08:11N 40°51' E 014°16'0 0.0
2015-Feb-26 07:30N 40°51' E 014°16'0 0.0
2015-Feb-26 06:16N 40°51' E 014°16'0 0.0
2015-Feb-26 05:28N 40°51' E 014°16'0 0.0
2015-Feb-26 04:33N 40°51' E 014°16'0 0.0
2015-Feb-26 03:09N 40°51' E 014°16'0 0.0
2015-Feb-26 02:29N 40°51' E 014°16'0 0.0
2015-Feb-26 01:33N 40°51' E 014°16'0 0.0
2015-Feb-26 00:28N 40°51' E 014°16'0 0.0
2015-Feb-25 23:22N 40°51' E 014°16'0 0.0
2015-Feb-25 22:31N 40°51' E 014°16'0 0.0
2015-Feb-25 21:32N 40°51' E 014°16'0 0.0
2015-Feb-25 20:33N 40°51' E 014°16'0 0.0
2015-Feb-25 19:31N 40°51' E 014°16'0 0.0
2015-Feb-25 18:29N 40°51' E 014°16'0 0.0
2015-Feb-25 17:30N 40°51' E 014°16'0 0.0
2015-Feb-25 16:33N 40°51' E 014°16'0 0.0
2015-Feb-25 15:24N 40°51' E 014°16'0 0.0
2015-Feb-25 14:32N 40°51' E 014°16'0 0.0
2015-Feb-25 13:27N 40°51' E 014°16'0 0.0
2015-Feb-25 11:26N 40°51' E 014°16'0 0.0
2015-Feb-25 10:28N 40°51' E 014°16'0 0.0
2015-Feb-25 09:18N 40°51' E 014°16'0 0.0
2015-Feb-25 08:24N 40°51' E 014°16'0 0.0
2015-Feb-25 07:32N 40°51' E 014°16'0 0.0
2015-Feb-25 05:25N 40°51' E 014°16'0 0.0
2015-Feb-25 04:16N 40°51' E 014°16'0 0.0
2015-Feb-25 03:32N 40°51' E 014°16'0 0.0
2015-Feb-25 02:31N 40°51' E 014°16'0 0.0
2015-Feb-25 01:25N 40°51' E 014°16'0 0.0
2015-Feb-25 00:33N 40°51' E 014°16'0 0.0
2015-Feb-24 23:28N 40°51' E 014°16'0 0.0
2015-Feb-24 22:13N 40°51' E 014°16'0 0.0
2015-Feb-24 21:33N 40°51' E 014°16'0 0.0
2015-Feb-24 20:19N 40°51' E 014°16'0 0.0
2015-Feb-24 19:15N 40°51' E 014°16'0 0.0
2015-Feb-24 18:17N 40°51' E 014°16'0 0.0
2015-Feb-24 16:20N 40°51' E 014°16'1 1.3
2015-Feb-24 15:32N 40°50' E 014°17'1 1.0
2015-Feb-24 14:31N 40°51' E 014°16'0 0.0
2015-Feb-23 23:30N 40°51' E 014°16'0 0.0
2015-Feb-23 20:28N 40°51' E 014°16'0 0.0
2015-Feb-23 17:04N 40°51' E 014°16'0 0.0
2015-Feb-23 16:18N 40°51' E 014°16'0 0.0
2015-Feb-23 15:33N 40°51' E 014°16'0 0.0
2015-Feb-23 11:23N 40°51' E 014°16'0 0.0
2015-Feb-23 10:07N 40°51' E 014°16'0 0.0
2015-Feb-23 09:05N 40°51' E 014°16'0 0.0
2015-Feb-23 08:30N 40°51' E 014°16'0 0.0
2015-Feb-23 07:26N 40°51' E 014°16'0 0.0
2015-Feb-21 04:23N 40°51' E 014°16'0 0.0
2015-Feb-21 02:33N 40°51' E 014°16'0 0.0
2015-Feb-21 00:32N 40°51' E 014°16'0 0.0
2015-Feb-20 23:33N 40°51' E 014°16'0 0.0
2015-Feb-20 22:33N 40°51' E 014°16'1 0.6
2015-Feb-20 21:30N 40°50' E 014°17'1 0.7
2015-Feb-20 20:29N 40°51' E 014°16'0 0.0
2015-Feb-20 18:22N 40°51' E 014°16'0 0.0
2015-Feb-20 17:20N 40°51' E 014°16'0 0.0
2015-Feb-20 16:13N 40°51' E 014°16'  
Track history (hours):
 
Tides and Currents Weather Stations Pressure Air Temp Water Temp Dewpoint Dewpoint Depression Visibility Wind Speed Wind Dir Waves Ship Positions

San Gennaro

Last reported at 2015-Mar-02 15:33 UTC. Time now 2015-Mar-02 20:36 UTC.
Position N 40°50' E 014°17'.

Length 27 m; draft 5.2 m.

Type: Tug. MMSI: 247295700.

Date/timePositionNaut miles runAvg speedWind from/ knotsBaromVisibWave heightAir tempDewpointWater temp
2015-Mar-02 15:33N 40°50' E 014°17'1 0.9
2015-Mar-02 14:31N 40°49' E 014°18'2 0.8
2015-Mar-02 12:10N 40°51' E 014°16'0 0.0
2015-Mar-02 11:30N 40°51' E 014°16'0 0.0
2015-Mar-01 17:11N 40°51' E 014°16'0 0.0
2015-Mar-01 13:28N 40°51' E 014°16'4 4.4
2015-Mar-01 12:31N 40°48' E 014°20'3 3.2
2015-Mar-01 11:30N 40°45' E 014°23'6 2.1
2015-Mar-01 08:31N 40°50' E 014°17'0 0.0
2015-Feb-28 20:30N 40°50' E 014°18'0 0.4
2015-Feb-28 19:31N 40°50' E 014°18'1 0.3
2015-Feb-28 15:04N 40°51' E 014°16'5 8.9
2015-Feb-28 14:33N 40°47' E 014°20'5 5.4
2015-Feb-28 13:33N 40°45' E 014°27'6 6.3
2015-Feb-28 12:33N 40°48' E 014°19'3 2.9
2015-Feb-28 11:30N 40°50' E 014°17'0 0.2
2015-Feb-28 10:08N 40°50' E 014°16'0 0.2
2015-Feb-28 09:31N 40°50' E 014°16'0 0.0
2015-Feb-27 18:13N 40°50' E 014°16'0 0.1
2015-Feb-27 13:14N 40°50' E 014°16'2 2.5
2015-Feb-27 12:33N 40°50' E 014°18'2 1.5
2015-Feb-27 11:13N 40°51' E 014°16'0 0.6
2015-Feb-27 10:33N 40°50' E 014°16'0 0.1
2015-Feb-27 07:33N 40°51' E 014°16'2 1.4
2015-Feb-27 06:26N 40°50' E 014°18'2 0.8
2015-Feb-27 04:28N 40°51' E 014°16'0 0.0
2015-Feb-27 02:17N 40°51' E 014°16'0 0.0
2015-Feb-27 01:27N 40°51' E 014°16'0 0.0
2015-Feb-26 20:28N 40°51' E 014°16'0 0.0
2015-Feb-26 19:27N 40°51' E 014°16'0 0.0
2015-Feb-26 08:11N 40°51' E 014°16'0 0.0
2015-Feb-26 07:30N 40°51' E 014°16'0 0.0
2015-Feb-26 06:16N 40°51' E 014°16'0 0.0
2015-Feb-26 05:28N 40°51' E 014°16'0 0.0
2015-Feb-26 04:33N 40°51' E 014°16'0 0.0
2015-Feb-26 03:09N 40°51' E 014°16'0 0.0
2015-Feb-26 02:29N 40°51' E 014°16'0 0.0
2015-Feb-26 01:33N 40°51' E 014°16'0 0.0
2015-Feb-26 00:28N 40°51' E 014°16'0 0.0
2015-Feb-25 23:22N 40°51' E 014°16'0 0.0
2015-Feb-25 22:31N 40°51' E 014°16'0 0.0
2015-Feb-25 21:32N 40°51' E 014°16'0 0.0
2015-Feb-25 20:33N 40°51' E 014°16'0 0.0
2015-Feb-25 19:31N 40°51' E 014°16'0 0.0
2015-Feb-25 18:29N 40°51' E 014°16'0 0.0
2015-Feb-25 17:30N 40°51' E 014°16'0 0.0
2015-Feb-25 16:33N 40°51' E 014°16'0 0.0
2015-Feb-25 15:24N 40°51' E 014°16'0 0.0
2015-Feb-25 14:32N 40°51' E 014°16'0 0.0
2015-Feb-25 13:27N 40°51' E 014°16'0 0.0
2015-Feb-25 11:26N 40°51' E 014°16'0 0.0
2015-Feb-25 10:28N 40°51' E 014°16'0 0.0
2015-Feb-25 09:18N 40°51' E 014°16'0 0.0
2015-Feb-25 08:24N 40°51' E 014°16'0 0.0
2015-Feb-25 07:32N 40°51' E 014°16'0 0.0
2015-Feb-25 05:25N 40°51' E 014°16'0 0.0
2015-Feb-25 04:16N 40°51' E 014°16'0 0.0
2015-Feb-25 03:32N 40°51' E 014°16'0 0.0
2015-Feb-25 02:31N 40°51' E 014°16'0 0.0
2015-Feb-25 01:25N 40°51' E 014°16'0 0.0
2015-Feb-25 00:33N 40°51' E 014°16'0 0.0
2015-Feb-24 23:28N 40°51' E 014°16'0 0.0
2015-Feb-24 22:13N 40°51' E 014°16'0 0.0
2015-Feb-24 21:33N 40°51' E 014°16'0 0.0
2015-Feb-24 20:19N 40°51' E 014°16'0 0.0
2015-Feb-24 19:15N 40°51' E 014°16'0 0.0
2015-Feb-24 18:17N 40°51' E 014°16'0 0.0
2015-Feb-24 16:20N 40°51' E 014°16'1 1.3
2015-Feb-24 15:32N 40°50' E 014°17'1 1.0
2015-Feb-24 14:31N 40°51' E 014°16'0 0.0
2015-Feb-23 23:30N 40°51' E 014°16'0 0.0
2015-Feb-23 20:28N 40°51' E 014°16'0 0.0
2015-Feb-23 17:04N 40°51' E 014°16'0 0.0
2015-Feb-23 16:18N 40°51' E 014°16'0 0.0
2015-Feb-23 15:33N 40°51' E 014°16'0 0.0
2015-Feb-23 11:23N 40°51' E 014°16'0 0.0
2015-Feb-23 10:07N 40°51' E 014°16'0 0.0
2015-Feb-23 09:05N 40°51' E 014°16'0 0.0
2015-Feb-23 08:30N 40°51' E 014°16'0 0.0
2015-Feb-23 07:26N 40°51' E 014°16'0 0.0
2015-Feb-21 04:23N 40°51' E 014°16'0 0.0
2015-Feb-21 02:33N 40°51' E 014°16'0 0.0
2015-Feb-21 00:32N 40°51' E 014°16'0 0.0
2015-Feb-20 23:33N 40°51' E 014°16'0 0.0
2015-Feb-20 22:33N 40°51' E 014°16'1 0.6
2015-Feb-20 21:30N 40°50' E 014°17'1 0.7
2015-Feb-20 20:29N 40°51' E 014°16'0 0.0
2015-Feb-20 18:22N 40°51' E 014°16'0 0.0
2015-Feb-20 17:20N 40°51' E 014°16'0 0.0
2015-Feb-20 16:13N 40°51' E 014°16'  

Dump ship's entire track history